Time;durP1;ratioP1;P1;durP2;ratioP2;P2;SDS_P1;SDS_P2;PMS_P1;PMS_P2;Temp;Humidity;BMP_temperature;BMP_pressure;BME280_temperature;BME280_humidity;BME280_pressure;Samples;Min_cycle;Max_cycle;Signal;HPM_P1;HPM_P2
2023/07/21 00:01:16;;;;;;;6.18;3.45;;;29.10;54.90;;;;;;5052168;28;20064;-80
2023/07/21 00:03:43;;;;;;;3.67;3.20;;;29.00;55.00;;;;;;5053505;28;20040;-80
2023/07/21 00:06:09;;;;;;;5.35;2.83;;;29.00;54.90;;;;;;5053084;28;20041;-80
2023/07/21 00:08:38;;;;;;;3.08;2.78;;;29.00;55.00;;;;;;5035419;28;20037;-81
2023/07/21 00:11:05;;;;;;;3.80;3.08;;;29.00;55.00;;;;;;5053222;28;20037;-80
2023/07/21 00:13:35;;;;;;;3.10;2.80;;;29.00;55.00;;;;;;5053204;28;20479;-81
2023/07/21 00:16:03;;;;;;;3.47;2.50;;;29.20;55.00;;;;;;5053017;28;20047;-80
2023/07/21 00:18:30;;;;;;;3.00;2.63;;;29.00;55.00;;;;;;5053176;28;20037;-81
2023/07/21 00:20:57;;;;;;;2.70;2.42;;;29.00;55.00;;;;;;5051797;28;20025;-80
2023/07/21 00:23:24;;;;;;;2.65;2.40;;;29.00;55.00;;;;;;5053007;28;20094;-81
2023/07/21 00:25:51;;;;;;;3.75;2.30;;;29.10;55.00;;;;;;5052833;28;20075;-80
2023/07/21 00:28:17;;;;;;;3.42;2.72;;;29.10;55.00;;;;;;5053017;28;20167;-79
2023/07/21 00:30:45;;;;;;;4.10;2.45;;;29.10;54.90;;;;;;5052884;28;20045;-82
2023/07/21 00:33:11;;;;;;;3.00;2.60;;;29.10;55.00;;;;;;5051521;28;20037;-82
2023/07/21 00:35:37;;;;;;;5.85;2.95;;;29.10;55.00;;;;;;5066983;28;20397;-82
2023/07/21 00:38:04;;;;;;;3.42;2.75;;;29.10;55.00;;;;;;5051536;28;20049;-81
2023/07/21 00:40:37;;;;;;;4.85;2.90;;;29.00;55.10;;;;;;5051464;28;20067;-81
2023/07/21 00:43:04;;;;;;;3.00;2.70;;;29.10;55.10;;;;;;5052766;28;20033;-82
2023/07/21 00:45:37;;;;;;;3.75;2.42;;;29.00;55.10;;;;;;5052619;28;20064;-82
2023/07/21 00:48:09;;;;;;;3.00;2.50;;;29.00;55.10;;;;;;5051343;28;20041;-82
2023/07/21 00:50:43;;;;;;;2.58;2.00;;;29.10;55.20;;;;;;5052475;28;20052;-82
2023/07/21 00:53:13;;;;;;;3.00;2.63;;;29.10;55.20;;;;;;5051399;28;20033;-81
2023/07/21 00:55:45;;;;;;;3.35;2.92;;;29.10;55.20;;;;;;5051048;28;20103;-81
2023/07/21 00:58:11;;;;;;;4.55;3.47;;;29.10;55.20;;;;;;5034473;28;20071;-82
2023/07/21 01:00:40;;;;;;;3.15;2.80;;;29.10;55.20;;;;;;5051312;28;20047;-79
2023/07/21 01:03:11;;;;;;;3.00;2.55;;;29.00;55.20;;;;;;5052392;28;20072;-82
2023/07/21 01:05:43;;;;;;;2.65;2.45;;;28.90;54.60;;;;;;5052074;28;20033;-82
2023/07/21 01:08:11;;;;;;;3.20;2.38;;;28.90;54.80;;;;;;5050694;28;20064;-82
2023/07/21 01:10:39;;;;;;;3.42;2.45;;;29.00;55.40;;;;;;5052150;28;20120;-83
2023/07/21 01:13:07;;;;;;;6.22;3.00;;;29.00;55.60;;;;;;5050812;28;20041;-82
2023/07/21 01:15:37;;;;;;;3.00;2.75;;;29.10;55.70;;;;;;5050549;28;20036;-82
2023/07/21 01:18:07;;;;;;;3.65;2.85;;;28.90;55.20;;;;;;5050935;28;20033;-82
2023/07/21 01:20:33;;;;;;;3.45;2.80;;;29.00;55.80;;;;;;5052920;28;20040;-83
2023/07/21 01:23:19;;;;;;;3.28;2.92;;;28.90;55.30;;;;;;5052574;28;20143;-81
2023/07/21 01:25:46;;;;;;;3.40;3.10;;;28.80;55.30;;;;;;5069310;28;20113;-82
2023/07/21 01:28:14;;;;;;;3.03;2.58;;;29.00;55.90;;;;;;5052627;28;20111;-82
2023/07/21 01:30:45;;;;;;;3.92;2.47;;;28.90;55.40;;;;;;5036180;28;20052;-82
2023/07/21 01:33:13;;;;;;;2.63;2.42;;;28.80;55.40;;;;;;5052389;28;20470;-82
2023/07/21 01:35:40;;;;;;;3.70;2.80;;;28.80;55.50;;;;;;5069100;28;20574;-82
2023/07/21 01:38:07;;;;;;;5.18;3.40;;;28.80;55.50;;;;;;5069051;28;20378;-81
2023/07/21 01:40:36;;;;;;;4.63;3.63;;;28.80;55.50;;;;;;5052652;28;20051;-82
2023/07/21 01:43:02;;;;;;;3.05;2.72;;;29.00;56.10;;;;;;5069372;28;20044;-82
2023/07/21 01:45:30;;;;;;;3.33;2.90;;;28.80;55.50;;;;;;5068946;28;20053;-82
2023/07/21 01:47:57;;;;;;;3.35;2.55;;;28.80;55.60;;;;;;5035511;28;20055;-82
2023/07/21 01:50:25;;;;;;;2.47;2.17;;;28.80;55.60;;;;;;5068659;28;20044;-82
2023/07/21 01:52:53;;;;;;;4.03;2.50;;;28.80;55.60;;;;;;5051581;28;20098;-82
2023/07/21 01:55:25;;;;;;;5.18;3.60;;;28.80;55.50;;;;;;5050164;28;20469;-82
2023/07/21 01:58:04;;;;;;;2.80;2.30;;;28.90;55.50;;;;;;5050074;28;20070;-82
2023/07/21 02:00:36;;;;;;;2.85;2.45;;;29.00;56.00;;;;;;5050252;28;20024;-81
2023/07/21 02:03:04;;;;;;;3.58;2.80;;;28.90;55.50;;;;;;5050112;28;20033;-82
2023/07/21 02:05:31;;;;;;;3.75;3.35;;;29.00;56.10;;;;;;5051443;28;20540;-81
2023/07/21 02:07:57;;;;;;;4.20;2.90;;;28.90;55.50;;;;;;5049884;28;20112;-81
2023/07/21 02:10:24;;;;;;;7.90;2.85;;;29.00;56.10;;;;;;5049741;28;20033;-81
2023/07/21 02:13:01;;;;;;;5.00;3.65;;;29.00;56.10;;;;;;5035271;28;20072;-82
2023/07/21 02:15:28;;;;;;;2.50;2.30;;;29.20;56.10;;;;;;5052069;28;20057;-82
2023/07/21 02:17:53;;;;;;;2.75;2.53;;;29.00;56.10;;;;;;5068329;28;20098;-82
2023/07/21 02:20:20;;;;;;;2.85;2.40;;;29.10;56.10;;;;;;5051603;28;20075;-82
2023/07/21 02:22:47;;;;;;;2.88;2.58;;;29.10;56.10;;;;;;5052065;28;20040;-81
2023/07/21 02:25:13;;;;;;;2.63;2.40;;;29.20;56.10;;;;;;5051800;28;20055;-82
2023/07/21 02:27:39;;;;;;;2.85;2.47;;;29.10;56.10;;;;;;5051755;28;20056;-82
2023/07/21 02:30:06;;;;;;;3.60;2.33;;;29.00;56.10;;;;;;5051978;28;20040;-81
2023/07/21 02:32:33;;;;;;;2.28;2.08;;;29.10;56.10;;;;;;5052031;28;20078;-82
2023/07/21 02:34:59;;;;;;;2.28;2.03;;;29.10;56.10;;;;;;5051930;28;20060;-81
2023/07/21 02:37:28;;;;;;;2.22;2.03;;;29.10;56.10;;;;;;5068626;28;20220;-82
2023/07/21 02:39:54;;;;;;;2.72;2.33;;;29.20;56.10;;;;;;5051774;28;20132;-82
2023/07/21 02:42:20;;;;;;;2.53;2.33;;;29.10;56.10;;;;;;5051876;28;20447;-81
2023/07/21 02:44:46;;;;;;;3.67;2.33;;;29.30;56.10;;;;;;5068291;28;20048;-82
2023/07/21 02:47:16;;;;;;;3.17;2.22;;;29.10;56.10;;;;;;5068047;28;20045;-82
2023/07/21 02:49:44;;;;;;;2.83;2.60;;;29.30;56.10;;;;;;5051750;28;20036;-82
2023/07/21 02:52:10;;;;;;;5.95;3.17;;;29.20;56.10;;;;;;5048205;28;20554;-81
2023/07/21 02:54:36;;;;;;;2.25;1.95;;;29.30;56.00;;;;;;5048367;28;20608;-81
2023/07/21 02:57:02;;;;;;;2.83;2.50;;;29.20;56.10;;;;;;5031553;28;20172;-82
2023/07/21 02:59:29;;;;;;;1.95;1.80;;;29.20;56.00;;;;;;5065078;28;20468;-82
2023/07/21 03:01:56;;;;;;;2.35;2.15;;;29.30;56.00;;;;;;5031447;28;20060;-82
2023/07/21 03:04:31;;;;;;;2.95;2.53;;;29.20;56.00;;;;;;5064941;28;20033;-81
2023/07/21 03:07:01;;;;;;;2.40;2.20;;;29.20;56.00;;;;;;5014931;28;20060;-79
2023/07/21 03:09:27;;;;;;;2.42;2.22;;;29.40;56.00;;;;;;5064940;28;20037;-82
2023/07/21 03:11:56;;;;;;;3.13;2.28;;;29.30;56.00;;;;;;5064963;28;20037;-82
2023/07/21 03:14:42;;;;;;;2.65;2.45;;;29.30;56.00;;;;;;5068238;28;20044;-82
2023/07/21 03:17:12;;;;;;;2.85;2.50;;;29.40;56.00;;;;;;5051007;28;20473;-82
2023/07/21 03:19:38;;;;;;;2.38;2.00;;;29.20;56.00;;;;;;5068337;28;20142;-81
2023/07/21 03:22:09;;;;;;;2.45;2.25;;;29.40;56.00;;;;;;5050438;28;20037;-82
2023/07/21 03:24:39;;;;;;;3.20;2.50;;;29.30;56.00;;;;;;5035128;28;20469;-82
2023/07/21 03:27:07;;;;;;;2.42;2.22;;;29.30;56.00;;;;;;4987999;28;20057;-82
2023/07/21 03:29:36;;;;;;;3.85;2.45;;;29.20;56.00;;;;;;5035446;28;20095;-82
2023/07/21 03:32:02;;;;;;;2.55;2.28;;;29.30;55.90;;;;;;5034987;28;20081;-82
2023/07/21 03:34:28;;;;;;;4.07;2.25;;;29.30;56.00;;;;;;5034897;28;20039;-82
2023/07/21 03:36:54;;;;;;;2.10;1.85;;;29.30;56.00;;;;;;5034774;28;20108;-82
2023/07/21 03:39:23;;;;;;;3.03;2.35;;;29.20;56.00;;;;;;5051126;28;20083;-82
2023/07/21 03:41:49;;;;;;;2.67;2.33;;;29.30;56.00;;;;;;5051509;28;20029;-81
2023/07/21 03:44:15;;;;;;;2.00;1.88;;;29.30;56.00;;;;;;5034427;28;20048;-79
2023/07/21 03:46:44;;;;;;;2.63;2.42;;;29.30;55.60;;;;;;5051140;28;20473;-78
2023/07/21 03:49:31;;;;;;;2.88;2.63;;;29.30;54.80;;;;;;5051133;28;20139;-78
2023/07/21 03:52:04;;;;;;;7.47;3.78;;;29.40;54.00;;;;;;5046644;28;20147;-79
2023/07/21 03:54:30;;;;;;;6.18;2.70;;;29.30;53.30;;;;;;5037947;28;20056;-77
2023/07/21 03:56:57;;;;;;;3.72;3.05;;;29.30;52.70;;;;;;5054261;28;20488;-78
2023/07/21 03:59:23;;;;;;;3.65;3.08;;;29.20;52.20;;;;;;5054322;28;20083;-78
2023/07/21 04:01:49;;;;;;;3.70;2.95;;;29.20;51.80;;;;;;5054563;28;20107;-80
2023/07/21 04:04:15;;;;;;;4.18;2.97;;;29.10;51.20;;;;;;5054336;28;20599;-81
2023/07/21 04:06:42;;;;;;;3.17;2.88;;;29.20;51.40;;;;;;5054187;28;20448;-79
2023/07/21 04:09:12;;;;;;;5.03;3.50;;;29.20;51.50;;;;;;5054345;28;20047;-85
2023/07/21 04:11:41;;;;;;;5.53;3.20;;;29.20;53.10;;;;;;5052452;28;20461;-84
2023/07/21 04:14:09;;;;;;;6.50;3.75;;;29.50;54.50;;;;;;5052040;28;20116;-80
2023/07/21 04:16:35;;;;;;;5.10;2.97;;;29.70;54.50;;;;;;5053093;28;20064;-78
2023/07/21 04:19:01;;;;;;;5.75;3.35;;;29.90;56.40;;;;;;5053266;28;20068;-80
2023/07/21 04:21:27;;;;;;;7.47;4.18;;;29.80;53.70;;;;;;5052082;28;20537;-78
2023/07/21 04:23:54;;;;;;;5.88;3.65;;;29.60;52.90;;;;;;5052207;28;20036;-80
2023/07/21 04:26:20;;;;;;;6.60;3.38;;;29.50;53.10;;;;;;5053054;28;20024;-77
2023/07/21 04:28:46;;;;;;;4.05;3.10;;;29.40;53.40;;;;;;5052819;28;20057;-78
2023/07/21 04:31:12;;;;;;;4.63;3.05;;;29.30;53.60;;;;;;5051673;28;20416;-78
2023/07/21 04:33:53;;;;;;;8.15;3.20;;;29.30;53.50;;;;;;5051100;28;20504;-78
2023/07/21 04:36:19;;;;;;;3.50;3.08;;;29.40;53.50;;;;;;5056685;28;20050;-77
2023/07/21 04:38:45;;;;;;;6.10;3.40;;;29.30;53.50;;;;;;5090233;28;20043;-79
2023/07/21 04:41:14;;;;;;;4.15;2.78;;;29.40;53.50;;;;;;5073689;28;20089;-79
2023/07/21 04:43:42;;;;;;;3.10;2.80;;;29.40;53.50;;;;;;5073493;28;20040;-78
2023/07/21 04:46:09;;;;;;;3.17;2.67;;;29.40;53.60;;;;;;5073206;28;20496;-78
2023/07/21 04:48:38;;;;;;;4.10;2.90;;;29.30;53.70;;;;;;5056498;28;20055;-76
2023/07/21 04:51:05;;;;;;;4.60;3.55;;;29.30;52.20;;;;;;5056955;28;20036;-79
2023/07/21 04:53:31;;;;;;;5.75;3.05;;;29.30;50.10;;;;;;5090408;28;20664;-81
2023/07/21 04:55:58;;;;;;;5.47;2.95;;;29.10;50.10;;;;;;5073772;28;20051;-80
2023/07/21 04:58:26;;;;;;;3.75;2.90;;;29.10;50.50;;;;;;5056841;28;20043;-80
2023/07/21 05:00:54;;;;;;;4.93;3.10;;;29.10;49.80;;;;;;5069721;28;20504;-79
2023/07/21 05:03:20;;;;;;;6.22;3.55;;;29.20;50.60;;;;;;5053382;28;20048;-79
2023/07/21 05:05:48;;;;;;;4.60;3.25;;;29.10;50.60;;;;;;5053116;28;20048;-76
2023/07/21 05:08:14;;;;;;;4.40;2.78;;;29.20;50.80;;;;;;5069406;28;20135;-77
2023/07/21 05:10:40;;;;;;;3.67;2.80;;;29.10;50.70;;;;;;5069768;28;20123;-77
2023/07/21 05:13:11;;;;;;;5.95;3.30;;;29.10;50.80;;;;;;5042599;28;20065;-77
2023/07/21 05:16:00;;;;;;;5.80;3.47;;;29.10;51.40;;;;;;4990215;28;20053;-77
2023/07/21 05:18:40;;;;;;;4.85;3.40;;;29.00;51.40;;;;;;4973736;28;20039;-76
2023/07/21 05:21:06;;;;;;;6.00;4.13;;;29.20;51.80;;;;;;4990213;28;20038;-77
2023/07/21 05:23:41;;;;;;;29.15;17.20;;;29.30;51.90;;;;;;4990230;28;20042;-76
2023/07/21 05:26:16;;;;;;;18.52;10.85;;;29.10;52.50;;;;;;4990113;28;20050;-78
2023/07/21 05:28:42;;;;;;;15.70;11.20;;;29.00;52.10;;;;;;4989984;28;20073;-76
2023/07/21 05:31:11;;;;;;;19.08;11.75;;;29.20;52.30;;;;;;4994048;28;20045;-78
2023/07/21 05:33:50;;;;;;;22.70;14.00;;;29.10;52.80;;;;;;4954606;28;20138;-80
2023/07/21 05:36:17;;;;;;;6.70;5.00;;;29.00;52.80;;;;;;4954664;28;20051;-78
2023/07/21 05:38:43;;;;;;;10.07;5.70;;;29.00;52.80;;;;;;4954491;28;20047;-77
2023/07/21 05:41:09;;;;;;;6.60;5.07;;;29.10;52.60;;;;;;4954481;28;20055;-78
2023/07/21 05:43:36;;;;;;;5.57;3.83;;;29.00;52.80;;;;;;4954534;28;20519;-77
2023/07/21 05:46:03;;;;;;;3.38;3.08;;;29.00;53.10;;;;;;4958527;28;20391;-79
2023/07/21 05:48:30;;;;;;;3.63;2.78;;;29.10;53.10;;;;;;4957464;28;20066;-77
2023/07/21 05:51:01;;;;;;;6.32;3.33;;;29.20;55.80;;;;;;4973401;28;20050;-76
2023/07/21 05:53:27;;;;;;;5.43;3.47;;;29.60;54.00;;;;;;4964043;28;20050;-76
2023/07/21 05:55:54;;;;;;;5.47;3.45;;;29.80;53.30;;;;;;4954165;28;20047;-78
2023/07/21 05:58:37;;;;;;;3.65;3.13;;;29.70;51.80;;;;;;4954287;28;20055;-77
2023/07/21 06:01:03;;;;;;;6.95;3.15;;;29.60;52.20;;;;;;4969983;28;20478;-77
2023/07/21 06:03:30;;;;;;;6.88;4.22;;;29.60;50.10;;;;;;4970685;28;20050;-82
2023/07/21 06:05:57;;;;;;;3.90;3.00;;;29.60;49.60;;;;;;4992184;28;20068;-78
2023/07/21 06:08:51;;;;;;;7.20;3.93;;;29.50;49.20;;;;;;5008011;28;20136;-81
2023/07/21 06:11:43;;;;;;;4.38;3.33;;;29.40;50.80;;;;;;4989665;28;20109;-79
2023/07/21 06:14:32;;;;;;;4.85;3.50;;;29.40;50.00;;;;;;4976455;28;20058;-76
2023/07/21 06:17:12;;;;;;;5.20;3.53;;;29.30;49.60;;;;;;4989670;28;20056;-80
2023/07/21 06:19:38;;;;;;;7.65;4.22;;;29.50;50.40;;;;;;4984660;28;20101;-80
2023/07/21 06:22:05;;;;;;;7.15;3.75;;;29.60;53.80;;;;;;4988864;28;20518;-79
2023/07/21 06:24:31;;;;;;;7.75;4.75;;;29.70;56.80;;;;;;5000093;28;20125;-77
2023/07/21 06:26:58;;;;;;;6.45;3.88;;;29.70;54.20;;;;;;5012051;28;20148;-79
2023/07/21 06:29:25;;;;;;;5.15;3.97;;;29.90;56.70;;;;;;5011850;28;20076;-81
2023/07/21 06:31:51;;;;;;;8.43;4.05;;;30.20;55.90;;;;;;5020717;28;20045;-77
2023/07/21 06:34:23;;;;;;;7.55;3.95;;;30.00;59.00;;;;;;5048242;28;20511;-77
2023/07/21 06:37:27;;;;;;;18.52;4.22;;;30.20;54.40;;;;;;5028613;28;20129;-77
2023/07/21 06:40:28;;;;;;;8.77;4.40;;;30.10;54.60;;;;;;5028988;28;20118;-77
2023/07/21 06:43:26;;;;;;;6.38;4.82;;;30.10;55.00;;;;;;4950893;28;20039;-78
2023/07/21 06:46:14;;;;;;;8.88;4.63;;;30.40;61.30;;;;;;4934916;29;20067;-77
2023/07/21 06:48:47;;;;;;;8.25;3.67;;;30.40;53.90;;;;;;4924622;29;20153;-77
2023/07/21 06:51:22;;;;;;;6.72;3.80;;;30.50;53.90;;;;;;4931915;29;20056;-78
2023/07/21 06:53:51;;;;;;;4.97;3.72;;;30.50;54.10;;;;;;4932006;29;20115;-78
2023/07/21 06:56:17;;;;;;;10.05;4.30;;;30.60;55.70;;;;;;4932248;29;20071;-78
2023/07/21 06:58:43;;;;;;;13.13;5.03;;;30.80;53.40;;;;;;4934850;29;20075;-81
2023/07/21 07:01:09;;;;;;;10.20;4.65;;;30.80;53.00;;;;;;4934883;29;20515;-80
2023/07/21 07:03:35;;;;;;;10.10;4.75;;;31.00;54.10;;;;;;4935116;29;20142;-79
2023/07/21 07:06:02;;;;;;;7.20;3.88;;;30.90;52.60;;;;;;4934959;29;20047;-79
2023/07/21 07:08:28;;;;;;;3.28;2.97;;;30.80;52.10;;;;;;4911742;29;20612;-78
2023/07/21 07:10:54;;;;;;;3.42;2.80;;;30.80;51.20;;;;;;4897307;29;20076;-78
2023/07/21 07:13:20;;;;;;;5.95;3.25;;;30.80;51.90;;;;;;4899304;29;20072;-79
2023/07/21 07:15:50;;;;;;;4.53;3.42;;;30.80;48.10;;;;;;4954078;28;20039;-79
2023/07/21 07:18:16;;;;;;;7.10;3.63;;;30.70;46.90;;;;;;4987589;28;20056;-79
2023/07/21 07:20:53;;;;;;;3.75;2.95;;;30.80;47.00;;;;;;5052142;28;20116;-79
2023/07/21 07:23:20;;;;;;;5.90;3.50;;;30.70;51.80;;;;;;5051953;28;20094;-80
2023/07/21 07:25:51;;;;;;;3.13;2.78;;;30.80;49.70;;;;;;5051990;28;20136;-79
2023/07/21 07:28:19;;;;;;;4.70;3.25;;;30.80;47.40;;;;;;5034808;28;20058;-79
2023/07/21 07:30:47;;;;;;;3.67;2.95;;;30.80;47.90;;;;;;5052003;28;20052;-78
2023/07/21 07:33:17;;;;;;;3.20;2.75;;;30.70;46.80;;;;;;5035092;28;20392;-78
2023/07/21 07:35:50;;;;;;;7.35;3.53;;;30.70;47.40;;;;;;5035013;28;20120;-78
2023/07/21 07:38:18;;;;;;;6.32;3.22;;;30.80;48.50;;;;;;5034718;28;20515;-79
2023/07/21 07:40:47;;;;;;;9.50;4.28;;;30.70;48.60;;;;;;5051720;28;20060;-79
2023/07/21 07:43:14;;;;;;;6.78;2.83;;;30.80;51.70;;;;;;5034885;28;20049;-81
2023/07/21 07:45:40;;;;;;;4.97;3.05;;;30.70;48.90;;;;;;5035016;28;20083;-82
2023/07/21 07:48:09;;;;;;;3.88;3.38;;;30.70;48.00;;;;;;5051354;28;20412;-81
2023/07/21 07:50:39;;;;;;;4.60;2.65;;;30.60;49.30;;;;;;5034813;28;20555;-80
2023/07/21 07:53:09;;;;;;;3.28;2.42;;;30.80;48.70;;;;;;5051437;28;20029;-79
2023/07/21 07:55:39;;;;;;;4.57;3.35;;;30.80;48.20;;;;;;5052611;28;20048;-79
2023/07/21 07:58:06;;;;;;;5.93;3.65;;;30.70;48.60;;;;;;5053585;28;20469;-79
2023/07/21 08:00:37;;;;;;;3.20;2.80;;;30.80;49.80;;;;;;5052228;28;20037;-80
2023/07/21 08:03:07;;;;;;;3.28;2.80;;;30.80;49.30;;;;;;5053622;28;20021;-78
2023/07/21 08:05:38;;;;;;;4.20;2.90;;;30.80;51.80;;;;;;5052013;28;20040;-79
2023/07/21 08:08:05;;;;;;;2.58;2.35;;;30.80;51.50;;;;;;5052249;28;20028;-79
2023/07/21 08:10:32;;;;;;;3.50;2.78;;;30.80;47.20;;;;;;5052751;28;20393;-78
2023/07/21 08:12:59;;;;;;;5.80;3.30;;;30.60;47.20;;;;;;5051622;28;20481;-79
2023/07/21 08:15:25;;;;;;;6.70;3.05;;;30.60;48.50;;;;;;5051910;28;20431;-79
2023/07/21 08:17:53;;;;;;;3.65;2.85;;;30.70;47.50;;;;;;5053218;28;20032;-81
2023/07/21 08:20:20;;;;;;;6.55;3.30;;;30.60;46.90;;;;;;5051831;28;20110;-80
2023/07/21 08:22:53;;;;;;;4.43;2.50;;;30.60;47.20;;;;;;5053383;28;20036;-80
2023/07/21 08:25:19;;;;;;;3.47;3.00;;;30.60;50.00;;;;;;5053309;28;20539;-76
2023/07/21 08:27:45;;;;;;;5.28;3.10;;;30.50;49.40;;;;;;5068066;28;20040;-91
2023/07/21 08:30:12;;;;;;;4.65;3.45;;;30.30;51.70;;;;;;5073390;28;20479;-88
2023/07/21 08:32:40;;;;;;;3.33;3.00;;;30.40;50.40;;;;;;5072396;28;20029;-87
2023/07/21 08:35:10;;;;;;;4.47;3.10;;;30.30;50.20;;;;;;5072331;28;20028;-87
2023/07/21 08:37:38;;;;;;;5.20;2.78;;;30.30;46.60;;;;;;5072289;28;20036;-84
2023/07/21 08:40:05;;;;;;;4.35;3.35;;;30.40;48.00;;;;;;5072711;28;20094;-84
2023/07/21 08:42:33;;;;;;;6.30;3.25;;;30.20;52.10;;;;;;5072872;28;20117;-79
2023/07/21 08:45:04;;;;;;;3.20;2.90;;;30.20;55.40;;;;;;5072654;28;20392;-82
2023/07/21 08:47:31;;;;;;;4.47;2.75;;;30.10;50.90;;;;;;5053251;28;20053;-81
2023/07/21 08:49:57;;;;;;;3.13;2.83;;;30.10;50.30;;;;;;5051264;28;20045;-82
2023/07/21 08:52:25;;;;;;;4.70;2.78;;;30.00;49.70;;;;;;5051665;28;20083;-82
2023/07/21 08:54:51;;;;;;;4.68;3.20;;;30.10;49.40;;;;;;5051403;28;20090;-84
2023/07/21 08:57:18;;;;;;;4.22;3.08;;;30.00;49.20;;;;;;5051277;28;20029;-83
2023/07/21 08:59:44;;;;;;;3.33;2.88;;;30.10;49.70;;;;;;5052443;28;20052;-82
2023/07/21 09:02:10;;;;;;;4.72;2.75;;;30.10;50.10;;;;;;5052491;28;20041;-84
2023/07/21 09:04:37;;;;;;;23.02;10.88;;;30.00;50.00;;;;;;5052277;28;20078;-79
2023/07/21 09:07:03;;;;;;;6.40;3.47;;;30.20;49.30;;;;;;5053177;28;20064;-79
2023/07/21 09:09:34;;;;;;;4.18;2.53;;;30.20;48.80;;;;;;5052628;28;20509;-78
2023/07/21 09:12:03;;;;;;;4.05;2.80;;;30.10;48.50;;;;;;5052349;28;20115;-81
2023/07/21 09:14:40;;;;;;;3.60;2.92;;;30.10;48.60;;;;;;5052057;28;20060;-82
2023/07/21 09:17:09;;;;;;;3.80;3.17;;;30.20;48.60;;;;;;5051773;28;20588;-83
2023/07/21 09:19:36;;;;;;;4.05;3.03;;;30.20;48.90;;;;;;5051548;28;20025;-84
2023/07/21 09:22:02;;;;;;;3.10;2.65;;;30.10;49.10;;;;;;5052126;28;20078;-81
2023/07/21 09:24:28;;;;;;;3.90;2.80;;;30.00;49.30;;;;;;5051739;28;20435;-84
2023/07/21 09:27:14;;;;;;;4.75;2.58;;;30.00;50.00;;;;;;5058199;28;20108;-82
2023/07/21 09:29:41;;;;;;;3.35;2.90;;;30.00;49.80;;;;;;5070909;28;20044;-87
2023/07/21 09:32:21;;;;;;;3.75;2.85;;;30.20;49.80;;;;;;5071472;28;20025;-86
2023/07/21 09:35:04;;;;;;;5.10;2.63;;;30.10;51.30;;;;;;5070532;28;20043;-84
2023/07/21 09:37:33;;;;;;;3.95;2.50;;;30.00;51.10;;;;;;5072026;28;20411;-84
2023/07/21 09:40:03;;;;;;;5.63;3.85;;;29.90;49.90;;;;;;5071543;28;20456;-84
2023/07/21 09:42:29;;;;;;;3.03;2.72;;;29.90;49.70;;;;;;5071604;28;20115;-81
2023/07/21 09:44:57;;;;;;;5.72;2.78;;;29.90;49.60;;;;;;5071204;28;20049;-78
2023/07/21 09:47:23;;;;;;;5.68;2.35;;;30.10;50.00;;;;;;5071426;28;20070;-77
2023/07/21 09:49:55;;;;;;;5.60;2.80;;;30.00;49.50;;;;;;5071368;28;20055;-82
2023/07/21 09:52:22;;;;;;;6.97;2.72;;;29.80;48.40;;;;;;5071191;28;20499;-77
2023/07/21 09:55:09;;;;;;;3.22;2.78;;;29.80;48.40;;;;;;5071462;28;20165;-77
2023/07/21 09:57:42;;;;;;;2.72;2.33;;;30.00;48.90;;;;;;5071437;28;20079;-76
2023/07/21 10:00:13;;;;;;;2.53;2.17;;;29.90;48.20;;;;;;5070984;28;20461;-76
2023/07/21 10:02:45;;;;;;;2.97;2.60;;;30.00;48.80;;;;;;5071358;28;20040;-77
2023/07/21 10:05:11;;;;;;;7.47;2.63;;;30.00;48.90;;;;;;5071396;28;20020;-79
2023/07/21 10:07:42;;;;;;;2.50;2.30;;;29.90;48.40;;;;;;5069895;28;20043;-76
2023/07/21 10:10:10;;;;;;;3.20;2.88;;;30.00;49.10;;;;;;5071022;28;20056;-77
2023/07/21 10:12:52;;;;;;;4.95;2.60;;;29.90;48.70;;;;;;5071283;28;20032;-77
2023/07/21 10:15:18;;;;;;;2.70;2.50;;;30.00;49.40;;;;;;5069826;28;20037;-77
2023/07/21 10:18:06;;;;;;;4.10;2.85;;;29.80;48.80;;;;;;5071409;28;20056;-79
2023/07/21 10:20:39;;;;;;;5.93;3.47;;;29.90;49.10;;;;;;5069591;28;20476;-74
2023/07/21 10:23:07;;;;;;;4.10;2.92;;;29.90;49.50;;;;;;5070907;28;20040;-74
2023/07/21 10:25:51;;;;;;;2.63;2.25;;;29.80;49.70;;;;;;5070748;28;20029;-75
2023/07/21 10:28:23;;;;;;;3.97;3.20;;;29.70;50.10;;;;;;5051925;28;20037;-76
2023/07/21 10:30:50;;;;;;;2.47;2.28;;;29.80;50.20;;;;;;5049917;28;20404;-81
2023/07/21 10:33:18;;;;;;;3.33;2.78;;;29.80;50.20;;;;;;5054169;28;20037;-81
2023/07/21 10:35:44;;;;;;;4.43;2.83;;;29.60;49.90;;;;;;5055203;28;20037;-89
2023/07/21 10:38:23;;;;;;;4.22;2.40;;;29.70;50.30;;;;;;5055158;28;20307;-82
2023/07/21 10:40:50;;;;;;;4.88;2.35;;;29.70;51.10;;;;;;5054845;28;20024;-84
2023/07/21 10:43:16;;;;;;;4.30;2.47;;;29.70;51.90;;;;;;5054913;28;20083;-80
2023/07/21 10:45:48;;;;;;;17.08;3.47;;;29.80;51.60;;;;;;5053617;28;20057;-80
2023/07/21 10:48:16;;;;;;;3.67;2.50;;;29.80;51.80;;;;;;5054996;28;20645;-80
2023/07/21 10:50:54;;;;;;;10.98;3.28;;;29.90;53.70;;;;;;5053570;28;20041;-81
2023/07/21 10:53:23;;;;;;;2.90;2.10;;;30.00;52.50;;;;;;5037489;28;20028;-80
2023/07/21 10:55:53;;;;;;;2.70;2.42;;;30.00;51.60;;;;;;5054984;28;20025;-82
2023/07/21 10:58:19;;;;;;;3.17;2.55;;;30.00;51.30;;;;;;5055192;28;20531;-82
2023/07/21 11:00:51;;;;;;;2.88;2.50;;;29.90;50.90;;;;;;5055125;28;20487;-83
2023/07/21 11:03:18;;;;;;;3.50;2.92;;;29.90;51.40;;;;;;5055483;28;20047;-84
2023/07/21 11:05:44;;;;;;;4.68;3.15;;;30.00;52.30;;;;;;5054962;28;20112;-82
2023/07/21 11:08:28;;;;;;;3.05;2.05;;;29.90;52.00;;;;;;5055115;28;20102;-81
2023/07/21 11:10:54;;;;;;;2.63;2.03;;;30.10;53.00;;;;;;5054806;28;20036;-81
2023/07/21 11:13:22;;;;;;;2.72;2.30;;;29.80;52.20;;;;;;5053936;28;20123;-81
2023/07/21 11:15:55;;;;;;;3.95;2.35;;;30.00;52.50;;;;;;5054038;28;20060;-82
2023/07/21 11:18:21;;;;;;;2.50;2.22;;;30.00;52.30;;;;;;5054986;28;20380;-85
2023/07/21 11:20:54;;;;;;;4.40;2.42;;;29.90;51.40;;;;;;5055011;28;20024;-83
2023/07/21 11:23:21;;;;;;;4.07;2.40;;;30.00;55.10;;;;;;5054691;28;20036;-80
2023/07/21 11:26:04;;;;;;;2.22;2.00;;;30.00;53.20;;;;;;5054498;28;20048;-81
2023/07/21 11:28:30;;;;;;;2.83;2.25;;;30.00;52.80;;;;;;5032771;28;20034;-79
2023/07/21 11:30:56;;;;;;;4.10;2.10;;;30.00;52.50;;;;;;5034179;28;20037;-81
2023/07/21 11:33:23;;;;;;;3.20;1.80;;;29.90;51.80;;;;;;5034409;28;20381;-83
2023/07/21 11:35:51;;;;;;;3.30;2.70;;;29.90;51.60;;;;;;5051787;28;20032;-84
2023/07/21 11:38:18;;;;;;;1.80;1.70;;;29.90;51.70;;;;;;5053348;28;20094;-77
2023/07/21 11:40:48;;;;;;;2.30;2.00;;;30.00;52.60;;;;;;5053755;28;20099;-77
2023/07/21 11:43:14;;;;;;;2.28;2.08;;;29.90;51.90;;;;;;5053505;28;20029;-80
2023/07/21 11:45:41;;;;;;;2.35;2.15;;;30.10;52.40;;;;;;5054029;28;20057;-81
2023/07/21 11:48:18;;;;;;;3.05;2.55;;;30.00;52.30;;;;;;5052823;28;20041;-81
2023/07/21 11:50:51;;;;;;;2.55;2.08;;;30.10;52.30;;;;;;5054048;28;20048;-77
2023/07/21 11:53:18;;;;;;;2.63;2.28;;;30.00;52.30;;;;;;5053667;28;20041;-78
2023/07/21 11:55:44;;;;;;;2.38;2.03;;;30.00;52.30;;;;;;5053751;28;20025;-76
2023/07/21 11:58:11;;;;;;;2.22;2.00;;;30.10;52.40;;;;;;5053908;28;20033;-82
2023/07/21 12:00:38;;;;;;;3.85;2.28;;;29.90;51.90;;;;;;5053776;28;20045;-81
2023/07/21 12:03:04;;;;;;;3.42;2.08;;;29.90;52.10;;;;;;5053691;28;20056;-84
2023/07/21 12:05:31;;;;;;;5.00;2.45;;;30.00;52.70;;;;;;5053863;28;20037;-82
2023/07/21 12:07:59;;;;;;;2.92;1.92;;;30.10;52.80;;;;;;5053844;28;20037;-79
2023/07/21 12:10:25;;;;;;;1.88;1.55;;;30.00;52.80;;;;;;5052251;28;20087;-81
2023/07/21 12:12:52;;;;;;;2.42;2.20;;;30.00;52.90;;;;;;5053602;28;20033;-80
2023/07/21 12:15:18;;;;;;;2.47;1.98;;;30.00;52.90;;;;;;5053656;28;20059;-79
2023/07/21 12:17:47;;;;;;;2.03;1.67;;;29.90;52.30;;;;;;5053461;28;20032;-81
2023/07/21 12:20:14;;;;;;;5.60;2.00;;;30.00;53.00;;;;;;5053528;28;20025;-82
2023/07/21 12:22:41;;;;;;;2.45;2.25;;;30.00;53.00;;;;;;5053667;28;20080;-81
2023/07/21 12:25:08;;;;;;;2.38;2.03;;;30.00;53.00;;;;;;5053344;28;20040;-83
2023/07/21 12:27:36;;;;;;;3.28;2.28;;;30.00;53.10;;;;;;5065187;28;20032;-84
2023/07/21 12:30:10;;;;;;;3.25;1.55;;;30.00;53.00;;;;;;5073283;28;20035;-84
2023/07/21 12:32:36;;;;;;;2.05;1.85;;;29.90;52.50;;;;;;5073334;28;20400;-82
2023/07/21 12:35:05;;;;;;;2.17;1.60;;;30.10;53.20;;;;;;5073463;28;20059;-83
2023/07/21 12:37:31;;;;;;;6.55;2.03;;;30.00;53.30;;;;;;5073210;28;20385;-80
2023/07/21 12:39:57;;;;;;;3.35;2.10;;;29.90;52.70;;;;;;5071785;28;20021;-80
2023/07/21 12:42:23;;;;;;;2.67;2.05;;;30.00;53.50;;;;;;5072940;28;20076;-82
2023/07/21 12:44:49;;;;;;;1.83;1.65;;;29.90;53.40;;;;;;5072945;28;20116;-83
2023/07/21 12:47:18;;;;;;;5.30;1.98;;;29.80;53.20;;;;;;5071506;28;20052;-84
2023/07/21 12:49:44;;;;;;;2.08;1.88;;;29.80;53.30;;;;;;5071506;28;20067;-88
2023/07/21 12:52:10;;;;;;;2.80;1.83;;;29.90;53.30;;;;;;5072426;28;20064;-79
2023/07/21 12:54:36;;;;;;;3.10;1.65;;;29.90;53.40;;;;;;5062756;28;20044;-79
2023/07/21 12:57:02;;;;;;;1.70;1.60;;;29.90;53.30;;;;;;5052400;28;20045;-80